Time;durP1;ratioP1;P1;durP2;ratioP2;P2;SDS_P1;SDS_P2;PMS_P1;PMS_P2;Temp;Humidity;BMP_temperature;BMP_pressure;BME280_temperature;BME280_humidity;BME280_pressure;Samples;Min_cycle;Max_cycle;Signal;HPM_P1;HPM_P2
2022/04/14 00:00:27;;;;;;;44.50;16.77;;;12.20;99.90;;;;;;5072163;28;20028;-76
2022/04/14 00:02:53;;;;;;;41.20;17.50;;;12.20;99.90;;;;;;5072414;28;20039;-76
2022/04/14 00:05:19;;;;;;;42.33;18.30;;;12.20;99.90;;;;;;5072459;28;20028;-76
2022/04/14 00:07:45;;;;;;;49.45;19.75;;;12.20;99.90;;;;;;5071791;28;20045;-77
2022/04/14 00:10:14;;;;;;;59.28;24.05;;;12.10;99.90;;;;;;5072141;28;20024;-76
2022/04/14 00:12:41;;;;;;;79.30;28.55;;;12.10;99.90;;;;;;5072286;28;20488;-76
2022/04/14 00:15:09;;;;;;;91.55;32.28;;;12.10;99.90;;;;;;5071952;28;20028;-76
2022/04/14 00:17:35;;;;;;;81.82;29.92;;;12.10;99.90;;;;;;5053581;28;20044;-77
2022/04/14 00:20:06;;;;;;;89.50;32.25;;;12.00;99.90;;;;;;5062153;28;20333;-77
2022/04/14 00:22:35;;;;;;;86.68;31.02;;;12.00;99.90;;;;;;5052258;28;20048;-76
2022/04/14 00:25:02;;;;;;;97.90;34.47;;;12.00;99.90;;;;;;5055544;28;20027;-77
2022/04/14 00:27:27;;;;;;;109.18;37.05;;;11.90;99.90;;;;;;5071506;28;20025;-77
2022/04/14 00:29:53;;;;;;;113.60;38.63;;;11.90;99.90;;;;;;5071900;28;20025;-76
2022/04/14 00:32:18;;;;;;;121.22;40.08;;;11.80;99.90;;;;;;5071587;28;20024;-77
2022/04/14 00:34:44;;;;;;;119.75;40.88;;;11.80;99.90;;;;;;5071701;28;20469;-77
2022/04/14 00:37:10;;;;;;;119.20;39.95;;;11.80;99.90;;;;;;5071449;28;20132;-77
2022/04/14 00:39:37;;;;;;;124.78;40.85;;;11.80;99.90;;;;;;5072111;28;20015;-77
2022/04/14 00:42:13;;;;;;;121.55;41.05;;;11.80;99.90;;;;;;5071852;28;20038;-77
2022/04/14 00:44:39;;;;;;;126.00;41.40;;;11.80;99.90;;;;;;5071588;28;20036;-77
2022/04/14 00:47:05;;;;;;;131.40;42.45;;;11.70;99.90;;;;;;5071620;28;20479;-78
2022/04/14 00:49:32;;;;;;;117.10;40.67;;;11.70;99.90;;;;;;5071033;28;20731;-77
2022/04/14 00:52:00;;;;;;;130.98;44.25;;;11.70;99.90;;;;;;5071664;28;20426;-77
2022/04/14 00:54:25;;;;;;;131.32;44.22;;;11.70;99.90;;;;;;5071480;28;20405;-77
2022/04/14 00:56:51;;;;;;;136.07;44.40;;;11.70;99.90;;;;;;5071198;28;20028;-77
2022/04/14 00:59:17;;;;;;;129.40;45.97;;;11.60;99.90;;;;;;5070899;28;20033;-77
2022/04/14 01:01:42;;;;;;;122.90;44.25;;;11.60;99.90;;;;;;5071128;28;20025;-77
2022/04/14 01:04:10;;;;;;;129.77;43.17;;;11.60;99.90;;;;;;5070900;28;20042;-77
2022/04/14 01:06:38;;;;;;;132.23;43.15;;;11.50;99.90;;;;;;5069861;28;20032;-77
2022/04/14 01:09:16;;;;;;;131.90;43.22;;;11.50;99.90;;;;;;5046656;28;20423;-77
2022/04/14 01:11:44;;;;;;;142.52;44.97;;;11.40;99.90;;;;;;5070096;28;20274;-77
2022/04/14 01:14:39;;;;;;;130.02;44.30;;;11.40;99.90;;;;;;5071274;28;20035;-77
2022/04/14 01:17:09;;;;;;;133.00;43.58;;;11.40;99.90;;;;;;5070770;28;20032;-77
2022/04/14 01:19:36;;;;;;;122.22;40.03;;;11.30;99.90;;;;;;5070898;28;20068;-77
2022/04/14 01:22:01;;;;;;;112.85;39.75;;;11.40;99.90;;;;;;5056031;28;20500;-77
2022/04/14 01:24:28;;;;;;;99.05;36.78;;;11.30;99.90;;;;;;5066552;28;20025;-77
2022/04/14 01:26:54;;;;;;;101.43;34.88;;;11.30;99.90;;;;;;5070672;28;20024;-77
2022/04/14 01:29:25;;;;;;;90.80;33.10;;;11.30;99.90;;;;;;5070595;28;20036;-77
2022/04/14 01:31:52;;;;;;;88.30;32.42;;;11.30;99.90;;;;;;5071058;28;20024;-78
2022/04/14 01:34:18;;;;;;;84.53;31.65;;;11.20;99.90;;;;;;5070463;28;20075;-77
2022/04/14 01:36:44;;;;;;;80.60;29.52;;;11.20;99.90;;;;;;5070752;28;20087;-77
2022/04/14 01:39:11;;;;;;;76.53;29.55;;;11.20;99.90;;;;;;5070607;28;20028;-77
2022/04/14 01:41:38;;;;;;;97.90;42.25;;;11.20;99.90;;;;;;5070161;28;20027;-77
2022/04/14 01:44:04;;;;;;;73.03;30.98;;;11.10;99.90;;;;;;5070548;28;20017;-77
2022/04/14 01:46:29;;;;;;;61.75;27.08;;;11.10;99.90;;;;;;5070594;28;20491;-78
2022/04/14 01:48:55;;;;;;;63.65;25.50;;;11.10;99.90;;;;;;5070826;28;20495;-77
2022/04/14 01:51:20;;;;;;;52.17;25.13;;;11.10;99.90;;;;;;5070876;28;20507;-77
2022/04/14 01:53:46;;;;;;;57.70;25.58;;;11.00;99.90;;;;;;5070207;28;20103;-77
2022/04/14 01:56:11;;;;;;;48.83;23.83;;;11.00;99.90;;;;;;5070098;28;20147;-77
2022/04/14 01:58:37;;;;;;;54.97;23.77;;;11.00;99.90;;;;;;5070188;28;20074;-77
2022/04/14 02:01:03;;;;;;;46.08;23.27;;;11.00;99.90;;;;;;5070385;28;20456;-77
2022/04/14 02:03:28;;;;;;;47.60;23.42;;;11.00;99.90;;;;;;5070407;28;20024;-77
2022/04/14 02:05:54;;;;;;;48.42;23.45;;;11.00;99.90;;;;;;5070063;28;20119;-77
2022/04/14 02:08:19;;;;;;;49.08;23.88;;;11.00;99.90;;;;;;5070313;28;20100;-77
2022/04/14 02:10:45;;;;;;;47.80;24.20;;;10.90;99.90;;;;;;5070181;28;20043;-77
2022/04/14 02:13:10;;;;;;;48.88;24.73;;;10.90;99.90;;;;;;5069920;28;20434;-77
2022/04/14 02:15:36;;;;;;;45.88;24.88;;;10.90;99.90;;;;;;5057448;28;20025;-77
2022/04/14 02:18:01;;;;;;;45.80;24.00;;;10.80;99.90;;;;;;5054956;28;20048;-77
2022/04/14 02:20:27;;;;;;;49.70;24.63;;;10.80;99.90;;;;;;5068709;28;20055;-77
2022/04/14 02:22:52;;;;;;;71.32;36.53;;;10.80;99.90;;;;;;5052102;28;20040;-76
2022/04/14 02:25:18;;;;;;;53.70;26.40;;;10.80;99.90;;;;;;5070011;28;20078;-77
2022/04/14 02:27:43;;;;;;;52.42;25.23;;;10.80;99.90;;;;;;5069712;28;20528;-77
2022/04/14 02:30:10;;;;;;;51.08;25.33;;;10.80;99.90;;;;;;5070226;28;20032;-77
2022/04/14 02:32:35;;;;;;;50.70;25.10;;;10.80;99.90;;;;;;5070355;28;20024;-78
2022/04/14 02:35:04;;;;;;;49.70;25.52;;;10.80;99.90;;;;;;5069608;28;20021;-77
2022/04/14 02:37:29;;;;;;;51.22;25.58;;;10.70;99.90;;;;;;5070398;28;20108;-77
2022/04/14 02:39:55;;;;;;;51.15;25.95;;;10.70;99.90;;;;;;5070109;28;20131;-78
2022/04/14 02:42:20;;;;;;;49.40;25.27;;;10.70;99.90;;;;;;5073157;28;20504;-77
2022/04/14 02:44:46;;;;;;;50.70;26.13;;;10.70;99.90;;;;;;5073774;28;20103;-77
2022/04/14 02:47:12;;;;;;;53.83;26.77;;;10.70;99.90;;;;;;5073639;28;20028;-78
2022/04/14 02:49:37;;;;;;;50.53;25.08;;;10.70;99.90;;;;;;5073988;28;20056;-78
2022/04/14 02:52:03;;;;;;;52.42;26.95;;;10.60;99.90;;;;;;5074327;28;20020;-78
2022/04/14 02:54:29;;;;;;;52.30;26.95;;;10.60;99.90;;;;;;5055661;28;20054;-78
2022/04/14 02:56:54;;;;;;;50.25;26.40;;;10.60;99.90;;;;;;5073973;28;20400;-78
2022/04/14 02:59:20;;;;;;;49.33;27.40;;;10.60;99.90;;;;;;5073457;28;20020;-78
2022/04/14 03:01:45;;;;;;;53.15;26.92;;;10.60;99.90;;;;;;5073275;28;20074;-78
2022/04/14 03:04:11;;;;;;;48.28;26.58;;;10.50;99.90;;;;;;5072629;28;20389;-79
2022/04/14 03:06:36;;;;;;;46.80;26.90;;;10.50;99.90;;;;;;5063266;28;20040;-78
2022/04/14 03:09:02;;;;;;;50.53;28.45;;;10.50;99.90;;;;;;5054253;28;20118;-78
2022/04/14 03:11:28;;;;;;;53.28;28.08;;;10.50;99.90;;;;;;5072220;28;20025;-78
2022/04/14 03:13:53;;;;;;;49.08;27.20;;;10.50;99.90;;;;;;5072935;28;20106;-78
2022/04/14 03:16:19;;;;;;;48.63;27.38;;;10.50;99.90;;;;;;5073401;28;20024;-78
2022/04/14 03:18:45;;;;;;;50.50;26.42;;;10.50;99.90;;;;;;5073880;28;20581;-80
2022/04/14 03:21:11;;;;;;;48.55;26.88;;;10.50;99.90;;;;;;5072944;28;20074;-78
2022/04/14 03:23:39;;;;;;;46.33;26.17;;;10.50;99.90;;;;;;5073355;28;20384;-78
2022/04/14 03:26:08;;;;;;;49.35;27.17;;;10.40;99.90;;;;;;5071799;28;20085;-78
2022/04/14 03:28:34;;;;;;;50.58;27.50;;;10.40;99.90;;;;;;5073215;28;20031;-78
2022/04/14 03:30:59;;;;;;;52.22;28.75;;;10.40;99.90;;;;;;5072739;28;20013;-78
2022/04/14 03:33:25;;;;;;;50.25;27.08;;;10.40;99.90;;;;;;5073342;28;20104;-78
2022/04/14 03:35:50;;;;;;;48.85;26.15;;;10.40;99.90;;;;;;5073180;28;20072;-78
2022/04/14 03:38:16;;;;;;;46.50;27.60;;;10.30;99.90;;;;;;5072972;28;20036;-78
2022/04/14 03:40:41;;;;;;;47.42;26.40;;;10.30;99.90;;;;;;5072887;28;20016;-78
2022/04/14 03:43:07;;;;;;;53.83;27.15;;;10.30;99.90;;;;;;5072546;28;20024;-78
2022/04/14 03:45:32;;;;;;;52.38;27.98;;;10.30;99.90;;;;;;5072597;28;20024;-78
2022/04/14 03:47:58;;;;;;;47.95;27.30;;;10.30;99.90;;;;;;5072475;28;20480;-78
2022/04/14 03:50:23;;;;;;;51.20;27.23;;;10.30;99.90;;;;;;5070015;28;20488;-78
2022/04/14 03:52:49;;;;;;;44.97;25.70;;;10.20;99.90;;;;;;5070271;28;20142;-78
2022/04/14 03:55:14;;;;;;;51.72;27.40;;;10.30;99.90;;;;;;5060517;28;20028;-78
2022/04/14 03:57:40;;;;;;;48.92;26.60;;;10.20;99.90;;;;;;5067204;28;20021;-78
2022/04/14 04:00:06;;;;;;;50.72;26.50;;;10.20;99.90;;;;;;5056431;28;20020;-79
2022/04/14 04:02:34;;;;;;;45.20;26.17;;;10.20;99.90;;;;;;5072124;28;20032;-78
2022/04/14 04:04:59;;;;;;;51.50;27.77;;;10.20;99.90;;;;;;5067387;28;20029;-78
2022/04/14 04:07:25;;;;;;;49.13;28.05;;;10.20;99.90;;;;;;5071464;28;20320;-78
2022/04/14 04:09:50;;;;;;;53.33;27.58;;;10.20;99.90;;;;;;5067848;28;20044;-78
2022/04/14 04:12:19;;;;;;;44.63;26.42;;;10.20;99.90;;;;;;5051305;28;20124;-78
2022/04/14 04:14:45;;;;;;;45.88;25.63;;;10.20;99.90;;;;;;5071280;28;20017;-79
2022/04/14 04:17:10;;;;;;;50.00;26.58;;;10.20;99.90;;;;;;5073593;28;20039;-78
2022/04/14 04:19:38;;;;;;;50.47;27.92;;;10.20;99.90;;;;;;5073433;28;20036;-79
2022/04/14 04:22:04;;;;;;;53.72;27.98;;;10.20;99.90;;;;;;5072321;28;20021;-80
2022/04/14 04:24:30;;;;;;;50.05;27.13;;;10.20;99.90;;;;;;5073066;28;20503;-79
2022/04/14 04:26:55;;;;;;;51.28;28.35;;;10.10;99.90;;;;;;5072067;28;20052;-79
2022/04/14 04:29:21;;;;;;;51.70;28.13;;;10.10;99.90;;;;;;5067439;28;20025;-79
2022/04/14 04:31:46;;;;;;;48.65;26.40;;;10.10;99.90;;;;;;5050830;28;20033;-79
2022/04/14 04:34:12;;;;;;;48.05;26.65;;;10.00;99.90;;;;;;5052465;28;20025;-78
2022/04/14 04:36:37;;;;;;;48.10;26.50;;;10.10;99.90;;;;;;5050939;28;20033;-78
2022/04/14 04:39:04;;;;;;;47.45;26.17;;;10.00;99.90;;;;;;5051215;28;20480;-78
2022/04/14 04:41:30;;;;;;;53.10;27.42;;;10.00;99.90;;;;;;5050816;28;20017;-79
2022/04/14 04:43:56;;;;;;;52.33;29.02;;;10.00;99.90;;;;;;5051280;28;20557;-78
2022/04/14 04:46:22;;;;;;;47.28;27.80;;;10.00;99.90;;;;;;5051706;28;20053;-78
2022/04/14 04:48:48;;;;;;;58.28;28.83;;;10.00;99.90;;;;;;5052197;28;20137;-78
2022/04/14 04:51:13;;;;;;;53.67;28.30;;;9.90;99.90;;;;;;5051981;28;20104;-78
2022/04/14 04:53:39;;;;;;;56.58;29.77;;;9.90;99.90;;;;;;5052247;28;20078;-78
2022/04/14 04:56:05;;;;;;;52.00;29.00;;;9.90;99.90;;;;;;5053414;28;20381;-78
2022/04/14 04:58:30;;;;;;;55.63;29.05;;;9.90;99.90;;;;;;5053308;28;20075;-78
2022/04/14 05:00:56;;;;;;;56.95;29.55;;;9.90;99.90;;;;;;5053813;28;20209;-78
2022/04/14 05:03:22;;;;;;;53.55;28.98;;;9.90;99.90;;;;;;5052560;28;20025;-78
2022/04/14 05:05:48;;;;;;;54.55;28.23;;;9.90;99.90;;;;;;5052601;28;20024;-78
2022/04/14 05:08:13;;;;;;;52.00;28.38;;;9.80;99.90;;;;;;5052328;28;20381;-78
2022/04/14 05:10:39;;;;;;;51.53;28.90;;;9.80;99.90;;;;;;5052091;28;20025;-78
2022/04/14 05:13:04;;;;;;;53.58;28.90;;;9.80;99.90;;;;;;5051769;28;20095;-78
2022/04/14 05:15:31;;;;;;;46.63;27.60;;;9.80;99.90;;;;;;5051813;28;20102;-78
2022/04/14 05:17:57;;;;;;;50.90;27.42;;;9.80;99.90;;;;;;5051595;28;20104;-78
2022/04/14 05:20:22;;;;;;;49.70;27.98;;;9.80;99.90;;;;;;5051498;28;20498;-78
2022/04/14 05:22:48;;;;;;;54.30;28.27;;;9.80;99.90;;;;;;5051640;28;20027;-78
2022/04/14 05:25:14;;;;;;;52.00;28.08;;;9.80;99.90;;;;;;5051812;28;20025;-78
2022/04/14 05:27:42;;;;;;;49.63;27.08;;;9.80;99.90;;;;;;5051327;28;20071;-78
2022/04/14 05:30:08;;;;;;;51.95;27.83;;;9.80;99.90;;;;;;5051630;28;20040;-78
2022/04/14 05:32:33;;;;;;;51.83;27.42;;;9.80;99.90;;;;;;5051874;28;20029;-78
2022/04/14 05:34:59;;;;;;;52.35;28.42;;;9.80;99.90;;;;;;5033107;28;20021;-77
2022/04/14 05:37:25;;;;;;;48.67;26.55;;;9.80;99.90;;;;;;5051231;28;20031;-77
2022/04/14 05:39:51;;;;;;;49.92;27.13;;;9.80;99.90;;;;;;5051401;28;20024;-78
2022/04/14 05:42:16;;;;;;;48.80;26.25;;;9.80;99.90;;;;;;5051259;28;20409;-78
2022/04/14 05:44:42;;;;;;;54.92;26.90;;;9.90;99.90;;;;;;5050976;28;20113;-78
2022/04/14 05:47:07;;;;;;;53.53;27.45;;;9.90;99.90;;;;;;5051541;28;20064;-78
2022/04/14 05:49:33;;;;;;;49.90;26.83;;;9.90;99.90;;;;;;5051691;28;20028;-78
2022/04/14 05:51:59;;;;;;;52.13;26.67;;;9.90;99.90;;;;;;5051329;28;20078;-77
2022/04/14 05:54:24;;;;;;;57.85;28.27;;;9.90;99.90;;;;;;5050915;28;20021;-78
2022/04/14 05:56:50;;;;;;;46.28;26.15;;;10.00;99.90;;;;;;5051215;28;20377;-77
2022/04/14 05:59:16;;;;;;;53.10;27.33;;;10.00;99.90;;;;;;5051451;28;20362;-77
2022/04/14 06:01:43;;;;;;;49.40;27.10;;;10.00;99.90;;;;;;5051313;28;20021;-77
2022/04/14 06:04:09;;;;;;;54.58;27.88;;;10.10;99.90;;;;;;5050732;28;20052;-78
2022/04/14 06:06:35;;;;;;;49.22;26.73;;;10.10;99.90;;;;;;5051265;28;20499;-78
2022/04/14 06:09:00;;;;;;;52.17;27.48;;;10.10;99.90;;;;;;5050902;28;20037;-78
2022/04/14 06:11:28;;;;;;;55.55;26.67;;;10.10;99.90;;;;;;5051303;28;20543;-78
2022/04/14 06:13:53;;;;;;;52.90;26.60;;;10.20;99.90;;;;;;5050652;28;20108;-78
2022/04/14 06:16:19;;;;;;;47.67;26.80;;;10.20;99.90;;;;;;5050888;28;20053;-78
2022/04/14 06:18:45;;;;;;;52.22;26.83;;;10.20;99.90;;;;;;5050421;28;20053;-78
2022/04/14 06:21:10;;;;;;;54.10;26.75;;;10.30;99.90;;;;;;5050623;28;20017;-78
2022/04/14 06:23:36;;;;;;;51.58;26.30;;;10.30;99.90;;;;;;5050611;28;20438;-78
2022/04/14 06:26:02;;;;;;;55.25;26.80;;;10.40;99.90;;;;;;5050542;28;20439;-78
2022/04/14 06:28:29;;;;;;;47.60;26.73;;;10.40;99.90;;;;;;5051088;28;20366;-78
2022/04/14 06:30:56;;;;;;;53.55;27.20;;;10.40;99.90;;;;;;5051121;28;20091;-78
2022/04/14 06:33:23;;;;;;;47.20;24.73;;;10.50;99.90;;;;;;5050416;28;20021;-78
2022/04/14 06:35:49;;;;;;;48.00;25.13;;;10.60;99.90;;;;;;5050907;28;20025;-78
2022/04/14 06:38:15;;;;;;;48.97;25.58;;;10.60;99.90;;;;;;5050829;28;20035;-78
2022/04/14 06:40:41;;;;;;;52.47;25.88;;;10.70;99.90;;;;;;5050273;28;20021;-78
2022/04/14 06:43:06;;;;;;;51.45;25.45;;;10.80;99.90;;;;;;5050561;28;20504;-78
2022/04/14 06:45:32;;;;;;;45.88;24.30;;;10.80;99.90;;;;;;5050536;28;20032;-78
2022/04/14 06:47:58;;;;;;;43.00;22.63;;;10.90;99.90;;;;;;5050268;28;20029;-78
2022/04/14 06:50:23;;;;;;;43.70;22.23;;;11.00;99.90;;;;;;5050535;28;20029;-78
2022/04/14 06:52:51;;;;;;;41.25;21.55;;;11.00;99.90;;;;;;5050576;28;20164;-78
2022/04/14 06:55:16;;;;;;;40.38;22.15;;;11.10;99.90;;;;;;5050332;28;20036;-78
2022/04/14 06:57:42;;;;;;;43.55;22.15;;;11.20;99.90;;;;;;5050251;28;20385;-78
2022/04/14 07:00:08;;;;;;;40.70;21.52;;;11.30;99.90;;;;;;5050304;28;20032;-78
2022/04/14 07:02:35;;;;;;;43.58;20.98;;;11.30;99.90;;;;;;5050052;28;20056;-78
2022/04/14 07:05:00;;;;;;;40.83;21.58;;;11.40;99.90;;;;;;5050380;28;20405;-78
2022/04/14 07:07:26;;;;;;;38.97;21.77;;;11.50;99.90;;;;;;5050044;28;20550;-78
2022/04/14 07:09:52;;;;;;;44.28;22.25;;;11.50;99.90;;;;;;5050174;28;20024;-78
2022/04/14 07:12:17;;;;;;;40.70;21.90;;;11.50;99.90;;;;;;5050375;28;20385;-78
2022/04/14 07:14:43;;;;;;;42.33;22.13;;;11.60;99.90;;;;;;5050075;28;20033;-78
2022/04/14 07:17:10;;;;;;;42.20;20.60;;;11.70;99.90;;;;;;5049808;28;20370;-79
2022/04/14 07:19:35;;;;;;;39.00;20.20;;;11.70;99.90;;;;;;5050186;28;20017;-78
2022/04/14 07:22:02;;;;;;;33.97;18.55;;;11.80;99.90;;;;;;5050263;28;20499;-78
2022/04/14 07:24:27;;;;;;;40.17;19.05;;;11.90;99.90;;;;;;5049860;28;20064;-79
2022/04/14 07:26:53;;;;;;;34.30;19.05;;;11.90;99.90;;;;;;5051744;28;20477;-79
2022/04/14 07:29:19;;;;;;;31.65;17.92;;;12.00;99.90;;;;;;5054002;28;20496;-78
2022/04/14 07:31:45;;;;;;;34.03;19.55;;;12.10;99.90;;;;;;5053720;28;20025;-79
2022/04/14 07:34:11;;;;;;;37.75;19.13;;;12.10;99.90;;;;;;5053712;28;20475;-79
2022/04/14 07:36:37;;;;;;;35.78;18.77;;;12.20;99.90;;;;;;5053722;28;20123;-79
2022/04/14 07:39:04;;;;;;;35.28;17.48;;;12.30;99.90;;;;;;5053913;28;20021;-79
2022/04/14 07:41:29;;;;;;;32.05;17.45;;;12.30;99.90;;;;;;5053525;28;20021;-78
2022/04/14 07:43:56;;;;;;;37.20;17.08;;;12.50;99.90;;;;;;5053752;28;20143;-79
2022/04/14 07:46:22;;;;;;;34.13;16.92;;;12.60;99.90;;;;;;5054004;28;20032;-79
2022/04/14 07:48:47;;;;;;;30.05;16.25;;;12.60;99.90;;;;;;5053840;28;20499;-78
2022/04/14 07:51:13;;;;;;;32.28;17.40;;;12.70;99.90;;;;;;5053418;28;20052;-79
2022/04/14 07:53:39;;;;;;;28.80;15.35;;;12.90;99.90;;;;;;5053492;28;20025;-79
2022/04/14 07:56:05;;;;;;;33.17;16.35;;;13.00;99.90;;;;;;5053321;28;20480;-78
2022/04/14 07:58:31;;;;;;;31.10;15.70;;;13.10;99.90;;;;;;5053639;28;20412;-79
2022/04/14 08:00:57;;;;;;;30.75;16.17;;;13.20;99.90;;;;;;5052922;28;20074;-79
2022/04/14 08:03:22;;;;;;;24.40;15.10;;;13.40;99.90;;;;;;5053315;28;20048;-78
2022/04/14 08:05:48;;;;;;;31.20;16.08;;;13.50;99.90;;;;;;5052927;28;20495;-79
2022/04/14 08:08:17;;;;;;;35.58;16.27;;;13.60;99.90;;;;;;5053345;28;20029;-79
2022/04/14 08:10:48;;;;;;;29.30;16.35;;;13.80;99.90;;;;;;5053050;28;20087;-79
2022/04/14 08:13:15;;;;;;;33.17;16.52;;;13.90;99.90;;;;;;5053527;28;20431;-79
2022/04/14 08:15:41;;;;;;;32.63;16.27;;;14.10;99.90;;;;;;5053736;28;20028;-79
2022/04/14 08:18:07;;;;;;;24.65;15.77;;;14.20;99.90;;;;;;5035205;28;20060;-76
2022/04/14 08:20:35;;;;;;;26.73;15.35;;;14.30;99.90;;;;;;5053217;28;20473;-78
2022/04/14 08:23:01;;;;;;;25.10;15.48;;;14.50;99.90;;;;;;5053231;28;20112;-77
2022/04/14 08:25:35;;;;;;;25.90;15.30;;;14.70;99.90;;;;;;5053100;28;20468;-77
2022/04/14 08:28:03;;;;;;;34.33;15.23;;;14.90;99.90;;;;;;5052670;28;20441;-77
2022/04/14 08:30:32;;;;;;;30.83;15.52;;;15.00;99.90;;;;;;5052706;28;20076;-77
2022/04/14 08:33:04;;;;;;;25.98;15.07;;;15.20;99.90;;;;;;5052717;28;20461;-77
2022/04/14 08:35:32;;;;;;;29.58;14.27;;;15.30;99.90;;;;;;5052271;28;20027;-77
2022/04/14 08:37:58;;;;;;;29.92;14.68;;;15.50;99.90;;;;;;5052372;28;20074;-77
2022/04/14 08:40:29;;;;;;;26.23;13.93;;;15.60;99.90;;;;;;5052342;28;20017;-77
2022/04/14 08:43:01;;;;;;;24.50;12.88;;;15.80;99.90;;;;;;5052540;28;20120;-77
2022/04/14 08:45:33;;;;;;;27.33;12.85;;;15.90;99.90;;;;;;5052464;28;20032;-77
2022/04/14 08:48:00;;;;;;;21.52;12.55;;;16.10;99.90;;;;;;5052069;28;20083;-77
2022/04/14 08:50:27;;;;;;;23.55;11.90;;;16.20;99.90;;;;;;5052093;28;20021;-77
2022/04/14 08:52:53;;;;;;;23.10;12.50;;;16.30;99.90;;;;;;5051995;28;20107;-78
2022/04/14 08:55:18;;;;;;;24.27;13.15;;;16.50;99.90;;;;;;5052133;28;20095;-77
2022/04/14 08:57:45;;;;;;;20.13;12.35;;;16.60;99.90;;;;;;5052184;28;20017;-77
2022/04/14 09:00:18;;;;;;;21.95;11.48;;;16.80;99.90;;;;;;5052317;28;20415;-78
2022/04/14 09:02:49;;;;;;;22.88;11.73;;;17.00;99.90;;;;;;5052258;28;20108;-77
2022/04/14 09:05:17;;;;;;;19.38;10.85;;;17.10;99.90;;;;;;5052143;28;20021;-78
2022/04/14 09:07:52;;;;;;;17.02;11.27;;;17.30;99.90;;;;;;5051679;28;20320;-77
2022/04/14 09:10:18;;;;;;;24.40;11.52;;;17.30;99.90;;;;;;5034029;28;20115;-78
2022/04/14 09:12:45;;;;;;;20.92;12.18;;;17.40;99.90;;;;;;5052121;28;20079;-78
2022/04/14 09:15:11;;;;;;;18.13;11.40;;;17.50;99.90;;;;;;5051552;28;20485;-78
2022/04/14 09:17:37;;;;;;;18.42;9.80;;;17.60;99.90;;;;;;5051350;28;20057;-78
2022/04/14 09:20:28;;;;;;;20.23;10.27;;;17.70;99.90;;;;;;5051544;28;20401;-78
2022/04/14 09:23:20;;;;;;;20.52;11.23;;;17.90;99.90;;;;;;5051606;28;20104;-78
2022/04/14 09:25:47;;;;;;;18.85;11.73;;;17.90;99.90;;;;;;5051873;28;20104;-78
2022/04/14 09:28:16;;;;;;;19.40;10.98;;;18.00;99.90;;;;;;5051389;28;20033;-78
2022/04/14 09:30:57;;;;;;;22.55;11.93;;;18.10;99.90;;;;;;5051396;28;20508;-78
2022/04/14 09:33:23;;;;;;;21.17;10.23;;;18.10;99.90;;;;;;5051285;28;20481;-77
2022/04/14 09:36:14;;;;;;;17.45;9.50;;;18.20;99.90;;;;;;5050956;28;20017;-77
2022/04/14 09:38:58;;;;;;;17.48;9.63;;;18.40;99.90;;;;;;5051454;28;20024;-77
2022/04/14 09:41:30;;;;;;;17.08;8.18;;;18.50;99.90;;;;;;5050891;28;20502;-77
2022/04/14 09:43:57;;;;;;;15.20;7.88;;;18.60;99.90;;;;;;5051082;28;20074;-77
2022/04/14 09:46:23;;;;;;;18.60;7.93;;;18.70;99.90;;;;;;5050946;28;20388;-78
2022/04/14 09:49:02;;;;;;;16.08;8.65;;;18.80;99.90;;;;;;5050624;28;20101;-78
2022/04/14 09:51:28;;;;;;;13.90;8.13;;;19.00;99.90;;;;;;5051351;28;20391;-78
2022/04/14 09:54:05;;;;;;;16.77;8.25;;;19.00;99.90;;;;;;5051075;28;20025;-78
2022/04/14 09:56:46;;;;;;;15.32;7.63;;;19.20;99.90;;;;;;5051052;28;20496;-78
2022/04/14 09:59:14;;;;;;;12.07;7.03;;;19.30;99.90;;;;;;5051431;28;20021;-78
2022/04/14 10:01:40;;;;;;;14.73;7.28;;;19.40;99.90;;;;;;5050891;28;20082;-78
2022/04/14 10:04:06;;;;;;;13.35;6.90;;;19.50;99.90;;;;;;5050993;28;20033;-78
2022/04/14 10:06:32;;;;;;;15.98;6.55;;;19.60;99.90;;;;;;5050953;28;20029;-79
2022/04/14 10:08:57;;;;;;;12.70;6.45;;;19.60;99.90;;;;;;5051058;28;20029;-78
2022/04/14 10:11:29;;;;;;;13.18;5.78;;;19.50;99.90;;;;;;5051117;28;20473;-78
2022/04/14 10:14:09;;;;;;;11.73;5.53;;;19.40;99.90;;;;;;5032853;28;20452;-78
2022/04/14 10:16:37;;;;;;;10.30;5.97;;;19.40;99.90;;;;;;5033204;28;20021;-78
2022/04/14 10:19:03;;;;;;;12.07;6.00;;;19.50;99.90;;;;;;5050596;28;20541;-78
2022/04/14 10:21:29;;;;;;;11.43;5.80;;;19.60;99.90;;;;;;5050874;28;20024;-77
2022/04/14 10:23:55;;;;;;;11.10;5.53;;;19.90;99.90;;;;;;5050914;28;20028;-78
2022/04/14 10:26:21;;;;;;;11.10;6.30;;;20.00;99.90;;;;;;5050988;28;20074;-78
2022/04/14 10:28:49;;;;;;;10.15;5.60;;;20.10;99.90;;;;;;5050262;28;20033;-78
2022/04/14 10:31:17;;;;;;;13.00;6.05;;;20.00;99.90;;;;;;5051793;28;20068;-78
2022/04/14 10:33:45;;;;;;;10.75;5.60;;;19.80;99.90;;;;;;5054515;28;20396;-78
2022/04/14 10:36:10;;;;;;;10.88;5.47;;;19.60;99.90;;;;;;5053611;28;20076;-79
2022/04/14 10:38:38;;;;;;;9.98;5.18;;;19.40;99.90;;;;;;5053876;28;20024;-79
2022/04/14 10:41:07;;;;;;;15.55;6.60;;;19.40;99.90;;;;;;5054481;28;20481;-78
2022/04/14 10:43:34;;;;;;;17.27;7.20;;;19.50;99.90;;;;;;5054457;28;20029;-79
2022/04/14 10:46:00;;;;;;;12.50;6.25;;;19.50;99.90;;;;;;5036873;28;20037;-79
2022/04/14 10:48:30;;;;;;;13.13;7.15;;;19.50;99.90;;;;;;5053549;28;20021;-79
2022/04/14 10:51:36;;;;;;;10.27;5.72;;;19.30;99.90;;;;;;5054207;28;20033;-78
2022/04/14 10:54:05;;;;;;;9.63;5.60;;;19.10;99.90;;;;;;5054647;28;20111;-79
2022/04/14 10:56:52;;;;;;;8.65;4.82;;;18.90;99.90;;;;;;5055161;28;20091;-78
2022/04/14 10:59:20;;;;;;;11.57;4.93;;;18.90;99.90;;;;;;5053301;28;20508;-78
2022/04/14 11:01:45;;;;;;;12.60;5.30;;;18.90;99.90;;;;;;5055836;28;20074;-79
2022/04/14 11:04:38;;;;;;;6.95;4.38;;;18.90;99.90;;;;;;5056591;28;20017;-78
2022/04/14 11:07:14;;;;;;;9.55;4.95;;;18.90;99.90;;;;;;5039379;28;20031;-78
2022/04/14 11:09:43;;;;;;;9.57;4.72;;;19.00;99.90;;;;;;5038942;28;20052;-78
2022/04/14 11:12:17;;;;;;;9.25;4.63;;;19.00;99.90;;;;;;5056988;28;20384;-79
2022/04/14 11:14:51;;;;;;;10.93;4.53;;;19.00;99.90;;;;;;5057378;28;20374;-78
2022/04/14 11:17:36;;;;;;;10.37;5.30;;;18.90;99.90;;;;;;5056835;28;20065;-78
2022/04/14 11:20:13;;;;;;;9.32;4.80;;;18.80;99.90;;;;;;5058733;28;20047;-79
2022/04/14 11:23:16;;;;;;;8.15;4.60;;;18.90;99.90;;;;;;5058041;28;20017;-78
2022/04/14 11:26:09;;;;;;;9.13;4.78;;;18.80;99.90;;;;;;5057699;28;20388;-78
2022/04/14 11:28:36;;;;;;;8.82;4.95;;;18.80;99.90;;;;;;5038122;28;20048;-77
2022/04/14 11:31:03;;;;;;;11.13;5.20;;;18.80;99.90;;;;;;5058128;28;20053;-79
2022/04/14 11:33:32;;;;;;;11.40;5.07;;;18.90;99.90;;;;;;5040313;28;20080;-78
2022/04/14 11:36:12;;;;;;;10.23;5.28;;;19.00;99.90;;;;;;5058020;28;20068;-78
2022/04/14 11:38:57;;;;;;;9.85;5.20;;;19.20;99.90;;;;;;5039777;28;20056;-79
2022/04/14 11:41:43;;;;;;;9.05;5.47;;;19.30;99.90;;;;;;5040404;28;20028;-78
2022/04/14 11:44:15;;;;;;;9.68;5.50;;;19.30;99.90;;;;;;5039843;28;20029;-79
2022/04/14 11:46:43;;;;;;;11.95;5.13;;;19.30;99.90;;;;;;5039593;28;20025;-79
2022/04/14 11:49:12;;;;;;;8.65;4.60;;;19.40;99.90;;;;;;5057774;28;20063;-78
2022/04/14 11:51:47;;;;;;;9.40;4.82;;;19.50;99.90;;;;;;5039110;28;20044;-79
2022/04/14 11:54:19;;;;;;;9.35;5.43;;;19.70;99.90;;;;;;5039517;28;20037;-79
2022/04/14 11:56:52;;;;;;;7.68;4.78;;;19.70;99.70;;;;;;5057202;28;20029;-79
2022/04/14 11:59:39;;;;;;;9.70;5.25;;;19.70;99.30;;;;;;5057138;28;20511;-78
2022/04/14 12:02:09;;;;;;;10.68;5.07;;;19.70;98.40;;;;;;5038606;28;20013;-79
2022/04/14 12:04:44;;;;;;;9.73;5.00;;;19.70;99.20;;;;;;5056990;28;20405;-79
2022/04/14 12:07:10;;;;;;;7.82;5.15;;;19.80;99.10;;;;;;5056783;28;20040;-78
2022/04/14 12:09:42;;;;;;;9.07;4.97;;;19.90;98.30;;;;;;5056270;28;20520;-79
2022/04/14 12:12:19;;;;;;;12.43;4.80;;;19.80;98.40;;;;;;5038324;28;20442;-79
2022/04/14 12:14:52;;;;;;;10.07;4.10;;;19.90;98.00;;;;;;5056726;28;20040;-78
2022/04/14 12:17:23;;;;;;;8.07;4.03;;;19.90;97.80;;;;;;5056155;28;20053;-78
2022/04/14 12:19:58;;;;;;;8.38;5.10;;;19.90;97.10;;;;;;5038103;28;20031;-78
2022/04/14 12:22:27;;;;;;;11.17;5.03;;;19.90;96.70;;;;;;5038783;28;20025;-78
2022/04/14 12:24:57;;;;;;;7.90;4.20;;;20.00;97.00;;;;;;5055926;28;20100;-80
2022/04/14 12:27:34;;;;;;;7.55;3.97;;;20.10;96.60;;;;;;5038114;28;20091;-79
2022/04/14 12:30:13;;;;;;;7.88;4.45;;;20.20;95.40;;;;;;5056676;28;20029;-78
2022/04/14 12:32:39;;;;;;;7.07;5.05;;;20.20;94.90;;;;;;5056413;28;20021;-78
2022/04/14 12:35:08;;;;;;;9.27;4.82;;;20.00;95.00;;;;;;5037486;28;20473;-79